Kesgrave, United Kingdom
Current Conditions -  °F | °C
As of 5:50 PM on Thursday 30 Oct 2014 (Local Time) from EGUW Reporting Station
Haze Haze  
Wind Chill: 59°   Ceiling: Unl
Heat Index: 59°   Visibility: 4mi
Dew Point: 57°   Wind: 6mph
Humidity: 94%   Direction: 140°SE
Pressure: 30.09"   Gusts: NA
Location:  52.06°N, 1.24°E
Report Text: EGUW 301750Z 14005KT 6000 BR SCT018 15/14 Q1019 WHT NOSIG
Loading
Personal Weather Stations






























Interactive Weather Map
Tropical Storm Tracking
New forecast layout! Learn more

10-Day Weather Forecast

Advertisements
Track Severe Weather on mobile